Grand Gorge, New York
Current Conditions -  °F | °C
As of 10:56 AM on Wednesday 22 Oct 2014 (Local Time) from KSCH Reporting Station
Overcast Overcast  
Wind Chill: 52°   Ceiling: 3400
Heat Index: 52°   Visibility: 10mi
Dew Point: 46°   Wind: 12mph
Humidity: 82%   Direction: 30°NNE
Pressure: 30.1"   Gusts: 20mph
Location:  42.36°N, 74.49°W
Report Text: KSCH 221456Z 03010G17KT 10SM OVC034 11/08 A3010
Loading
Personal Weather Stations






























Interactive Weather Map
Tropical Storm Tracking
New forecast layout! Learn more

10-Day Weather Forecast

Advertisements
Track Severe Weather on mobile